Time;durP1;ratioP1;P1;durP2;ratioP2;P2;SDS_P1;SDS_P2;PMS_P1;PMS_P2;Temp;Humidity;BMP_temperature;BMP_pressure;BME280_temperature;BME280_humidity;BME280_pressure;Samples;Min_cycle;Max_cycle;Signal;HPM_P1;HPM_P2
2023/08/01 00:02:55;;;;;;;;;;;;;;;16.6;93.26074;99891.47;;;;-70
2023/08/01 00:04:43;;;;;;;0.2;0;;;;;;;;;;;;;-69
2023/08/01 00:07:55;;;;;;;;;;;;;;;16.59;92.66699;99887.2;;;;-69
2023/08/01 00:12:57;;;;;;;;;;;;;;;16.55;92.9834;99878.25;;;;-68
2023/08/01 00:17:57;;;;;;;;;;;;;;;16.57;92.47266;99876.28;;;;-70
2023/08/01 00:22:57;;;;;;;;;;;;;;;16.49;92.32129;99871.03;;;;-69
2023/08/01 00:27:55;;;;;;;;;;;;;;;16.47;92.40723;99861.54;;;;-70
2023/08/01 00:32:55;;;;;;;;;;;;;;;16.43;92.65625;99854.24;;;;-70
2023/08/01 00:34:45;;;;;;;0.2;0;;;;;;;;;;;;;-68
2023/08/01 00:37:55;;;;;;;;;;;;;;;16.36;92.55176;99846.6;;;;-70
2023/08/01 00:42:56;;;;;;;;;;;;;;;16.28;92.49023;99845.13;;;;-70
2023/08/01 00:47:55;;;;;;;;;;;;;;;16.27;93.01367;99832.88;;;;-68
2023/08/01 00:52:55;;;;;;;;;;;;;;;16.25;92.17188;99834.23;;;;-69
2023/08/01 00:57:56;;;;;;;;;;;;;;;16.23;92.14551;99826.58;;;;-71
2023/08/01 01:02:55;;;;;;;;;;;;;;;16.24;92.54785;99818.98;;;;-69
2023/08/01 01:04:48;;;;;;;0.3;0.2;;;;;;;;;;;;;-69
2023/08/01 01:07:56;;;;;;;;;;;;;;;16.17;92.71289;99817.7;;;;-69
2023/08/01 01:12:55;;;;;;;;;;;;;;;16.15;92.56641;99814.64;;;;-70
2023/08/01 01:17:55;;;;;;;;;;;;;;;16.2;92.19434;99808.86;;;;-70
2023/08/01 01:22:56;;;;;;;;;;;;;;;16.19;92.78418;99810.97;;;;-69
2023/08/01 01:27:57;;;;;;;;;;;;;;;16.19;92.56055;99806.81;;;;-69
2023/08/01 01:32:56;;;;;;;;;;;;;;;16.2;92.69824;99807.3;;;;-69
2023/08/01 01:34:52;;;;;;;0.2;0;;;;;;;;;;;;;-70
2023/08/01 01:37:55;;;;;;;;;;;;;;;16.23;92.75977;99804.45;;;;-68
2023/08/01 01:42:55;;;;;;;;;;;;;;;16.26;92.74316;99802.83;;;;-69
2023/08/01 01:47:55;;;;;;;;;;;;;;;16.29;92.77148;99818.63;;;;-69
2023/08/01 01:52:55;;;;;;;;;;;;;;;16.25;93;99816.72;;;;-70
2023/08/01 01:57:55;;;;;;;;;;;;;;;16.25;92.77734;99806.73;;;;-69
2023/08/01 02:02:55;;;;;;;;;;;;;;;16.32;92.57617;99804.63;;;;-69
2023/08/01 02:04:54;;;;;;;0.2;0;;;;;;;;;;;;;-71
2023/08/01 02:07:55;;;;;;;;;;;;;;;16.27;92.54395;99807.52;;;;-69
2023/08/01 02:12:55;;;;;;;;;;;;;;;16.29;92.31348;99810.52;;;;-70
2023/08/01 02:17:55;;;;;;;;;;;;;;;16.25;92.53125;99800.23;;;;-70
2023/08/01 02:22:55;;;;;;;;;;;;;;;16.2;92.04004;99798.05;;;;-69
2023/08/01 02:27:55;;;;;;;;;;;;;;;16.21;92.47754;99800.53;;;;-69
2023/08/01 02:32:55;;;;;;;;;;;;;;;16.16;92.24219;99784.73;;;;-70
2023/08/01 02:34:56;;;;;;;0.2;0;;;;;;;;;;;;;-71
2023/08/01 02:37:55;;;;;;;;;;;;;;;16.12;91.88672;99788.66;;;;-70
2023/08/01 02:42:55;;;;;;;;;;;;;;;16.08;91.96875;99795.11;;;;-69
2023/08/01 02:47:55;;;;;;;;;;;;;;;16.05;91.73926;99790.18;;;;-69
2023/08/01 02:52:55;;;;;;;;;;;;;;;16.06;91.81934;99788.03;;;;-70
2023/08/01 02:57:55;;;;;;;;;;;;;;;16.01;91.83203;99790.05;;;;-69
2023/08/01 03:02:56;;;;;;;;;;;;;;;15.96;92.18945;99784.91;;;;-70
2023/08/01 03:04:58;;;;;;;0.2;0.1;;;;;;;;;;;;;-69
2023/08/01 03:07:56;;;;;;;;;;;;;;;15.94;91.80664;99785.48;;;;-70
2023/08/01 03:12:55;;;;;;;;;;;;;;;15.94;92.06348;99779.83;;;;-71
2023/08/01 03:17:55;;;;;;;;;;;;;;;15.9;91.6875;99781.7;;;;-69
2023/08/01 03:22:58;;;;;;;;;;;;;;;15.89;91.8418;99776.35;;;;-69
2023/08/01 03:27:55;;;;;;;;;;;;;;;15.86;92.12402;99776.44;;;;-70
2023/08/01 03:32:55;;;;;;;;;;;;;;;15.86;92.31348;99782.81;;;;-70
2023/08/01 03:35:01;;;;;;;0.2;0;;;;;;;;;;;;;-71
2023/08/01 03:37:55;;;;;;;;;;;;;;;15.9;92.63574;99774.38;;;;-71
2023/08/01 03:42:55;;;;;;;;;;;;;;;15.9;93.29395;99777.71;;;;-70
2023/08/01 03:47:55;;;;;;;;;;;;;;;15.96;93.30566;99777.66;;;;-70
2023/08/01 03:52:55;;;;;;;;;;;;;;;16.02;93.68555;99779.83;;;;-69
2023/08/01 03:57:55;;;;;;;;;;;;;;;16.02;93.85449;99779.71;;;;-70
2023/08/01 04:02:55;;;;;;;;;;;;;;;16.01;93.83008;99781.81;;;;-71
2023/08/01 04:05:03;;;;;;;0.2;0.1;;;;;;;;;;;;;-69
2023/08/01 04:07:58;;;;;;;;;;;;;;;16;93.79492;99783.88;;;;-71
2023/08/01 04:12:55;;;;;;;;;;;;;;;16;93.69238;99778.83;;;;-70
2023/08/01 04:17:55;;;;;;;;;;;;;;;16.05;94.28223;99785.64;;;;-69
2023/08/01 04:22:55;;;;;;;;;;;;;;;16.02;93.88672;99781.28;;;;-69
2023/08/01 04:27:55;;;;;;;;;;;;;;;16.02;93.91992;99780.5;;;;-71
2023/08/01 04:32:55;;;;;;;;;;;;;;;16.01;93.97559;99782.07;;;;-69
2023/08/01 04:35:06;;;;;;;0.4;0.3;;;;;;;;;;;;;-69
2023/08/01 04:37:55;;;;;;;;;;;;;;;16.02;93.66309;99780.78;;;;-70
2023/08/01 04:42:56;;;;;;;;;;;;;;;16.03;93.39941;99779.98;;;;-69
2023/08/01 04:47:55;;;;;;;;;;;;;;;16.05;93.42383;99783.81;;;;-69
2023/08/01 04:52:55;;;;;;;;;;;;;;;16.07;93.18359;99784.59;;;;-70
2023/08/01 04:57:55;;;;;;;;;;;;;;;16.09;93.32129;99784.45;;;;-70
2023/08/01 05:02:55;;;;;;;;;;;;;;;16.08;92.8418;99780.18;;;;-70
2023/08/01 05:05:09;;;;;;;0.2;0;;;;;;;;;;;;;-69
2023/08/01 05:07:57;;;;;;;;;;;;;;;16.09;93.08691;99775.36;;;;-69
2023/08/01 05:12:55;;;;;;;;;;;;;;;16.11;92.96973;99781.37;;;;-70
2023/08/01 05:17:56;;;;;;;;;;;;;;;16.13;92.70605;99784.89;;;;-69
2023/08/01 05:22:55;;;;;;;;;;;;;;;16.14;92.75195;99781.67;;;;-69
2023/08/01 05:27:58;;;;;;;;;;;;;;;16.15;92.8877;99789.39;;;;-69
2023/08/01 05:32:55;;;;;;;;;;;;;;;16.17;92.69238;99793.25;;;;-70
2023/08/01 05:35:11;;;;;;;0.2;0.1;;;;;;;;;;;;;-70
2023/08/01 05:37:56;;;;;;;;;;;;;;;16.21;92.67773;99796.69;;;;-69
2023/08/01 05:42:55;;;;;;;;;;;;;;;16.23;93.1709;99800.51;;;;-69
2023/08/01 05:47:57;;;;;;;;;;;;;;;16.22;92.88086;99798.63;;;;-69
2023/08/01 05:52:55;;;;;;;;;;;;;;;16.21;92.95703;99811.85;;;;-70
2023/08/01 05:57:56;;;;;;;;;;;;;;;16.24;92.89453;99813.31;;;;-69
2023/08/01 06:02:55;;;;;;;;;;;;;;;16.25;92.68555;99823.75;;;;-70
2023/08/01 06:05:14;;;;;;;0.2;0.1;;;;;;;;;;;;;-70
2023/08/01 06:07:58;;;;;;;;;;;;;;;16.26;92.14063;99821.91;;;;-71
2023/08/01 06:12:55;;;;;;;;;;;;;;;16.28;92.08984;99822.91;;;;-69
2023/08/01 06:17:58;;;;;;;;;;;;;;;16.43;92.33301;99827.59;;;;-70
2023/08/01 06:22:57;;;;;;;;;;;;;;;16.58;91.72754;99829.83;;;;-72
2023/08/01 06:27:58;;;;;;;;;;;;;;;16.65;91.30273;99826.88;;;;-74
2023/08/01 06:32:55;;;;;;;;;;;;;;;16.71;91.6416;99832.97;;;;-73
2023/08/01 06:35:20;;;;;;;0.2;0.1;;;;;;;;;;;;;-72
2023/08/01 06:37:57;;;;;;;;;;;;;;;16.8;91.17969;99836.02;;;;-72
2023/08/01 06:42:55;;;;;;;;;;;;;;;16.89;91.41992;99830.3;;;;-72
2023/08/01 06:47:55;;;;;;;;;;;;;;;17;91.33301;99831.39;;;;-73
2023/08/01 06:52:55;;;;;;;;;;;;;;;17.14;90.77832;99826.94;;;;-73
2023/08/01 06:57:55;;;;;;;;;;;;;;;17.21;90.44434;99836.33;;;;-72
2023/08/01 07:02:56;;;;;;;;;;;;;;;17.25;90.35254;99847.27;;;;-73
2023/08/01 07:05:19;;;;;;;0.2;0;;;;;;;;;;;;;-73
2023/08/01 07:07:56;;;;;;;;;;;;;;;17.29;90.11328;99852.61;;;;-74
2023/08/01 07:12:55;;;;;;;;;;;;;;;17.38;89.97559;99853.34;;;;-73
2023/08/01 07:17:55;;;;;;;;;;;;;;;17.47;89.52246;99858.92;;;;-72
2023/08/01 07:22:55;;;;;;;;;;;;;;;17.51;89.31934;99856.34;;;;-73
2023/08/01 07:27:55;;;;;;;;;;;;;;;17.56;89.1377;99860.38;;;;-72
2023/08/01 07:32:55;;;;;;;;;;;;;;;17.63;88.69043;99862.91;;;;-73
2023/08/01 07:35:21;;;;;;;0.2;0.1;;;;;;;;;;;;;-73
2023/08/01 07:37:55;;;;;;;;;;;;;;;17.74;88.18652;99862.44;;;;-73
2023/08/01 07:42:55;;;;;;;;;;;;;;;17.93;87.79785;99856.25;;;;-72
2023/08/01 07:47:55;;;;;;;;;;;;;;;18.03;87.00879;99862.27;;;;-73
2023/08/01 07:52:55;;;;;;;;;;;;;;;18;86.72266;99867.05;;;;-74
2023/08/01 07:57:57;;;;;;;;;;;;;;;17.91;87.26465;99875.42;;;;-72
2023/08/01 08:02:55;;;;;;;;;;;;;;;17.88;87.80957;99877.33;;;;-74
2023/08/01 08:05:24;;;;;;;0.3;0.1;;;;;;;;;;;;;-73
2023/08/01 08:07:55;;;;;;;;;;;;;;;17.91;87.76953;99877.05;;;;-73
2023/08/01 08:12:55;;;;;;;;;;;;;;;17.95;87.34082;99886.14;;;;-72
2023/08/01 08:17:55;;;;;;;;;;;;;;;17.91;87.09668;99892.16;;;;-73
2023/08/01 08:22:56;;;;;;;;;;;;;;;17.83;87.34082;99889.7;;;;-73
2023/08/01 08:28:02;;;;;;;;;;;;;;;17.78;87.46387;99895.05;;;;-73
2023/08/01 08:32:55;;;;;;;;;;;;;;;17.72;88.00195;99898.95;;;;-73
2023/08/01 08:35:27;;;;;;;0.2;0.1;;;;;;;;;;;;;-75
2023/08/01 08:37:55;;;;;;;;;;;;;;;17.78;88.2168;99897.05;;;;-72
2023/08/01 08:42:56;;;;;;;;;;;;;;;17.92;87.91992;99899.78;;;;-72
2023/08/01 08:47:59;;;;;;;;;;;;;;;18.28;87.41699;99900.88;;;;-72
2023/08/01 08:52:55;;;;;;;;;;;;;;;18.84;85.19531;99902.19;;;;-72
2023/08/01 08:57:55;;;;;;;;;;;;;;;19.02;83.54199;99912.14;;;;-73
2023/08/01 09:02:55;;;;;;;;;;;;;;;19.03;82.93359;99915.99;;;;-72
2023/08/01 09:05:32;;;;;;;0.2;0;;;;;;;;;;;;;-70
2023/08/01 09:07:56;;;;;;;;;;;;;;;19.26;82.95313;99917.97;;;;-69
2023/08/01 09:12:55;;;;;;;;;;;;;;;19.48;81.56152;99924.32;;;;-70
2023/08/01 09:18:00;;;;;;;;;;;;;;;19.55;81.46191;99931.63;;;;-70
2023/08/01 09:22:55;;;;;;;;;;;;;;;19.67;80.33203;99935.97;;;;-70
2023/08/01 09:27:55;;;;;;;;;;;;;;;19.85;80.43066;99948.47;;;;-70
2023/08/01 09:33:01;;;;;;;;;;;;;;;20.08;79.4873;99949.68;;;;-68
2023/08/01 09:35:44;;;;;;;0.2;0;;;;;;;;;;;;;-68
2023/08/01 09:37:55;;;;;;;;;;;;;;;20.42;78.96094;99951.86;;;;-71
2023/08/01 09:42:55;;;;;;;;;;;;;;;20.62;76.82031;99956.09;;;;-69
2023/08/01 09:47:55;;;;;;;;;;;;;;;20.66;76.55664;99962.58;;;;-70
2023/08/01 09:52:56;;;;;;;;;;;;;;;20.6;76.54492;99971.3;;;;-69
2023/08/01 09:57:57;;;;;;;;;;;;;;;20.73;78.30273;99963.74;;;;-70
2023/08/01 10:02:56;;;;;;;;;;;;;;;21.35;76.67285;99964.73;;;;-69
2023/08/01 10:05:38;;;;;;;0.2;0;;;;;;;;;;;;;-69
2023/08/01 10:07:57;;;;;;;;;;;;;;;21.91;75.15332;99967.78;;;;-70
2023/08/01 10:12:55;;;;;;;;;;;;;;;22.16;72.69238;99972.5;;;;-69
2023/08/01 10:17:55;;;;;;;;;;;;;;;21.92;71.98242;99977.99;;;;-72
2023/08/01 10:22:56;;;;;;;;;;;;;;;21.83;73.28711;99976.72;;;;-72
2023/08/01 10:28:05;;;;;;;;;;;;;;;22.11;72.63867;99983.47;;;;-73
2023/08/01 10:32:58;;;;;;;;;;;;;;;22.32;71.1123;99990.94;;;;-73
2023/08/01 10:35:46;;;;;;;0.3;0.1;;;;;;;;;;;;;-72
2023/08/01 10:37:57;;;;;;;;;;;;;;;22.37;70.33301;99988.71;;;;-71
2023/08/01 10:42:55;;;;;;;;;;;;;;;22.29;69.80859;99991.33;;;;-73
2023/08/01 10:47:55;;;;;;;;;;;;;;;21.96;69.9043;99992.78;;;;-72
2023/08/01 10:53:05;;;;;;;;;;;;;;;21.99;70.7168;99998;;;;-73
2023/08/01 10:57:57;;;;;;;;;;;;;;;22.23;69.95801;100009.4;;;;-72
2023/08/01 11:02:56;;;;;;;;;;;;;;;22.38;69.75293;100005.1;;;;-73
2023/08/01 11:05:44;;;;;;;0.2;0;;;;;;;;;;;;;-73
2023/08/01 11:08:05;;;;;;;;;;;;;;;22.71;70.0791;100012;;;;-71
2023/08/01 11:12:55;;;;;;;;;;;;;;;22.81;70.84766;100011.1;;;;-72
2023/08/01 11:17:56;;;;;;;;;;;;;;;22.79;70.05566;100010;;;;-70
2023/08/01 11:23:00;;;;;;;;;;;;;;;22.74;69.35254;100041.4;;;;-69
2023/08/01 11:27:55;;;;;;;;;;;;;;;22.4;71.43164;100037.3;;;;-68
2023/08/01 11:32:55;;;;;;;;;;;;;;;22.17;70.22266;100039.3;;;;-69
2023/08/01 11:35:48;;;;;;;0.2;0;;;;;;;;;;;;;-69
2023/08/01 11:37:56;;;;;;;;;;;;;;;22.14;73.15625;100050.4;;;;-69
2023/08/01 11:43:00;;;;;;;;;;;;;;;22.38;71.40527;100045.7;;;;-70
2023/08/01 11:47:56;;;;;;;;;;;;;;;22.65;70.93555;100043.4;;;;-70
2023/08/01 11:52:55;;;;;;;;;;;;;;;22.71;72.04102;100045.4;;;;-74
2023/08/01 11:58:01;;;;;;;;;;;;;;;22.61;71.13574;100054.9;;;;-73
2023/08/01 12:02:55;;;;;;;;;;;;;;;22.73;71.40527;100054.7;;;;-74
2023/08/01 12:05:52;;;;;;;0.3;0.1;;;;;;;;;;;;;-74
2023/08/01 12:07:55;;;;;;;;;;;;;;;22.93;71.57422;100055.8;;;;-73
2023/08/01 12:12:55;;;;;;;;;;;;;;;23.08;70.79785;100059.8;;;;-73
2023/08/01 12:18:00;;;;;;;;;;;;;;;23.22;71.73438;100068.9;;;;-73
2023/08/01 12:22:57;;;;;;;;;;;;;;;23.14;70.69336;100076.2;;;;-73
2023/08/01 12:27:55;;;;;;;;;;;;;;;22.95;70.94922;100085.5;;;;-72
2023/08/01 12:32:58;;;;;;;;;;;;;;;22.87;69.75;100088.8;;;;-72
2023/08/01 12:35:56;;;;;;;0.2;0;;;;;;;;;;;;;-73
2023/08/01 12:37:56;;;;;;;;;;;;;;;22.93;68.24023;100090;;;;-72
2023/08/01 12:42:55;;;;;;;;;;;;;;;23.14;68.35156;100085.8;;;;-73
2023/08/01 12:47:55;;;;;;;;;;;;;;;23.47;70.04785;100086.8;;;;-73
2023/08/01 12:52:55;;;;;;;;;;;;;;;23.68;69.50879;100092.4;;;;-73
2023/08/01 12:57:55;;;;;;;;;;;;;;;23.88;68.7959;100099.5;;;;-69
2023/08/01 13:02:55;;;;;;;;;;;;;;;24.09;69.12598;100099.4;;;;-69
2023/08/01 13:06:00;;;;;;;0.2;0.1;;;;;;;;;;;;;-69
2023/08/01 13:07:55;;;;;;;;;;;;;;;24;69.26172;100100.1;;;;-69
2023/08/01 13:12:55;;;;;;;;;;;;;;;23.64;66.08105;100101.2;;;;-68
2023/08/01 13:17:55;;;;;;;;;;;;;;;23.35;67.8125;100123;;;;-69
2023/08/01 13:22:55;;;;;;;;;;;;;;;22.98;68.5;100115.9;;;;-68
2023/08/01 13:27:55;;;;;;;;;;;;;;;22.69;69.90527;100109.8;;;;-70
2023/08/01 13:32:55;;;;;;;;;;;;;;;22.65;72.15625;100108.2;;;;-70
2023/08/01 13:36:04;;;;;;;0.2;0;;;;;;;;;;;;;-69
2023/08/01 13:37:55;;;;;;;;;;;;;;;22.77;72.63086;100111.4;;;;-69
2023/08/01 13:42:55;;;;;;;;;;;;;;;22.85;71.8916;100126.7;;;;-69
2023/08/01 13:47:55;;;;;;;;;;;;;;;22.76;71.58008;100140.6;;;;-69
2023/08/01 13:52:55;;;;;;;;;;;;;;;22.74;71.28125;100135.1;;;;-70
2023/08/01 13:57:55;;;;;;;;;;;;;;;22.84;70.55469;100121.9;;;;-68
2023/08/01 14:02:57;;;;;;;;;;;;;;;22.74;71.05273;100118.8;;;;-69
2023/08/01 14:06:12;;;;;;;0.2;0;;;;;;;;;;;;;-68
2023/08/01 14:07:56;;;;;;;;;;;;;;;22.59;71.16504;100125.7;;;;-68
2023/08/01 14:12:55;;;;;;;;;;;;;;;22.43;71.15234;100123.3;;;;-69
2023/08/01 14:17:55;;;;;;;;;;;;;;;22.21;71.40234;100119.6;;;;-69
2023/08/01 14:22:55;;;;;;;;;;;;;;;21.99;71.62988;100127.5;;;;-69
2023/08/01 14:27:55;;;;;;;;;;;;;;;21.88;71.49707;100134.5;;;;-69
2023/08/01 14:32:55;;;;;;;;;;;;;;;21.82;72.79688;100135.7;;;;-68
2023/08/01 14:36:14;;;;;;;0.2;0;;;;;;;;;;;;;-69
2023/08/01 14:37:55;;;;;;;;;;;;;;;21.86;71.99609;100140;;;;-70
2023/08/01 14:42:55;;;;;;;;;;;;;;;21.9;70.90918;100147.6;;;;-68
2023/08/01 14:47:57;;;;;;;;;;;;;;;21.88;70.01758;100150.5;;;;-68
2023/08/01 14:52:55;;;;;;;;;;;;;;;21.84;70.47754;100146.5;;;;-68
2023/08/01 14:57:56;;;;;;;;;;;;;;;21.81;70.25586;100153.9;;;;-70
2023/08/01 15:02:55;;;;;;;;;;;;;;;21.71;70.15039;100162.8;;;;-68
2023/08/01 15:06:16;;;;;;;0.2;0.1;;;;;;;;;;;;;-69
2023/08/01 15:07:55;;;;;;;;;;;;;;;21.61;70.43164;100165;;;;-68
2023/08/01 15:12:57;;;;;;;;;;;;;;;21.63;70.73047;100178.8;;;;-69
2023/08/01 15:17:55;;;;;;;;;;;;;;;21.63;70.37695;100176.9;;;;-69
2023/08/01 15:22:55;;;;;;;;;;;;;;;21.61;70.77148;100171.7;;;;-68
2023/08/01 15:27:56;;;;;;;;;;;;;;;21.61;70.26172;100173.2;;;;-68
2023/08/01 15:32:55;;;;;;;;;;;;;;;21.57;69.49023;100172.9;;;;-68
2023/08/01 15:36:19;;;;;;;0.2;0;;;;;;;;;;;;;-68
2023/08/01 15:37:55;;;;;;;;;;;;;;;21.59;69.58594;100163.9;;;;-69
2023/08/01 15:42:55;;;;;;;;;;;;;;;21.76;69.62402;100167.5;;;;-69
2023/08/01 15:47:55;;;;;;;;;;;;;;;22.01;69.54785;100175;;;;-69
2023/08/01 15:52:56;;;;;;;;;;;;;;;22.17;69.58301;100172.3;;;;-68
2023/08/01 15:57:55;;;;;;;;;;;;;;;22.13;69.34863;100177.9;;;;-69
2023/08/01 16:02:55;;;;;;;;;;;;;;;21.98;69.63477;100188.6;;;;-70
2023/08/01 16:06:23;;;;;;;0.2;0;;;;;;;;;;;;;-69
2023/08/01 16:07:55;;;;;;;;;;;;;;;21.77;69.57813;100215;;;;-69
2023/08/01 16:12:55;;;;;;;;;;;;;;;21.35;70.76563;100212.5;;;;-69
2023/08/01 16:17:55;;;;;;;;;;;;;;;20.92;72.33301;100210.9;;;;-70
2023/08/01 16:22:55;;;;;;;;;;;;;;;20.64;73.44434;100201.3;;;;-69
2023/08/01 16:27:55;;;;;;;;;;;;;;;20.45;73.78906;100194.4;;;;-70
2023/08/01 16:32:55;;;;;;;;;;;;;;;20.31;74.12695;100198.3;;;;-70
2023/08/01 16:36:26;;;;;;;0.2;0;;;;;;;;;;;;;-68
2023/08/01 16:37:55;;;;;;;;;;;;;;;20.2;74.2002;100195.5;;;;-70
2023/08/01 16:42:55;;;;;;;;;;;;;;;20.16;74.27148;100193.8;;;;-69
2023/08/01 16:47:55;;;;;;;;;;;;;;;20.12;74.11816;100190.2;;;;-70
2023/08/01 16:52:55;;;;;;;;;;;;;;;20.09;74.14746;100192.8;;;;-69
2023/08/01 16:57:55;;;;;;;;;;;;;;;20.04;73.82129;100196.1;;;;-69
2023/08/01 17:02:55;;;;;;;;;;;;;;;20.02;73.63867;100197.2;;;;-71
2023/08/01 17:06:30;;;;;;;0.2;0;;;;;;;;;;;;;-72
2023/08/01 17:07:55;;;;;;;;;;;;;;;19.99;73.8252;100189.6;;;;-72
2023/08/01 17:12:55;;;;;;;;;;;;;;;19.93;73.74707;100185.3;;;;-69
2023/08/01 17:17:55;;;;;;;;;;;;;;;19.96;73.08496;100190.3;;;;-69
2023/08/01 17:22:55;;;;;;;;;;;;;;;20;72.54688;100190.1;;;;-73
2023/08/01 17:27:56;;;;;;;;;;;;;;;20.03;72.80078;100187;;;;-70
2023/08/01 17:32:55;;;;;;;;;;;;;;;20.02;72.90234;100183.8;;;;-69
2023/08/01 17:36:33;;;;;;;0.2;0.1;;;;;;;;;;;;;-68
2023/08/01 17:37:55;;;;;;;;;;;;;;;20;73.22656;100191;;;;-70
2023/08/01 17:42:55;;;;;;;;;;;;;;;19.88;73.27344;100189.1;;;;-69
2023/08/01 17:47:56;;;;;;;;;;;;;;;19.76;73.83203;100193.7;;;;-68
2023/08/01 17:52:55;;;;;;;;;;;;;;;19.65;73.88184;100195.2;;;;-69
2023/08/01 17:57:55;;;;;;;;;;;;;;;19.55;73.67383;100192.3;;;;-68
2023/08/01 18:02:55;;;;;;;;;;;;;;;19.46;73.89648;100199.1;;;;-69
2023/08/01 18:06:37;;;;;;;0.4;0.1;;;;;;;;;;;;;-69
2023/08/01 18:07:57;;;;;;;;;;;;;;;19.38;74.34668;100196.8;;;;-69
2023/08/01 18:12:55;;;;;;;;;;;;;;;19.34;74.46387;100198.9;;;;-69
2023/08/01 18:17:56;;;;;;;;;;;;;;;19.27;74.66602;100204.6;;;;-69
2023/08/01 18:22:55;;;;;;;;;;;;;;;19.2;74.91504;100213.5;;;;-69
2023/08/01 18:27:55;;;;;;;;;;;;;;;19.11;75.06836;100212.9;;;;-69
2023/08/01 18:32:55;;;;;;;;;;;;;;;18.99;75.44531;100210.1;;;;-68
2023/08/01 18:36:39;;;;;;;0.2;0;;;;;;;;;;;;;-70
2023/08/01 18:37:55;;;;;;;;;;;;;;;18.87;75.53809;100223.4;;;;-69
2023/08/01 18:42:56;;;;;;;;;;;;;;;18.75;75.55176;100228.3;;;;-71
2023/08/01 18:47:55;;;;;;;;;;;;;;;18.66;75.91895;100224.5;;;;-70
2023/08/01 18:52:58;;;;;;;;;;;;;;;18.58;75.79297;100228.9;;;;-70
2023/08/01 18:57:57;;;;;;;;;;;;;;;18.54;75.83105;100231.3;;;;-69
2023/08/01 19:02:55;;;;;;;;;;;;;;;18.44;75.46582;100240.2;;;;-69
2023/08/01 19:06:42;;;;;;;0.3;0.1;;;;;;;;;;;;;-69
2023/08/01 19:07:57;;;;;;;;;;;;;;;18.35;75.48242;100245.3;;;;-69
2023/08/01 19:12:55;;;;;;;;;;;;;;;18.27;75.63965;100242.1;;;;-70
2023/08/01 19:17:55;;;;;;;;;;;;;;;18.18;75.84961;100244.9;;;;-70
2023/08/01 19:22:55;;;;;;;;;;;;;;;18.12;75.91895;100253;;;;-69
2023/08/01 19:27:55;;;;;;;;;;;;;;;18.05;76.24414;100256.8;;;;-69
2023/08/01 19:32:55;;;;;;;;;;;;;;;18;76.13574;100265.6;;;;-69
2023/08/01 19:36:45;;;;;;;0.2;0;;;;;;;;;;;;;-71
2023/08/01 19:37:55;;;;;;;;;;;;;;;17.94;76.44043;100263.8;;;;-71
2023/08/01 19:42:56;;;;;;;;;;;;;;;17.88;76.59766;100267.2;;;;-70
2023/08/01 19:47:58;;;;;;;;;;;;;;;17.81;76.66406;100269.5;;;;-69
2023/08/01 19:52:55;;;;;;;;;;;;;;;17.75;76.7207;100268.7;;;;-69
2023/08/01 19:57:55;;;;;;;;;;;;;;;17.69;76.84668;100269.2;;;;-70
2023/08/01 20:02:55;;;;;;;;;;;;;;;17.63;77.05078;100262.9;;;;-70
2023/08/01 20:06:48;;;;;;;0.2;0;;;;;;;;;;;;;-71
2023/08/01 20:07:55;;;;;;;;;;;;;;;17.57;76.97266;100261.5;;;;-71
2023/08/01 20:12:55;;;;;;;;;;;;;;;17.52;77.18945;100261.6;;;;-70
2023/08/01 20:17:55;;;;;;;;;;;;;;;17.48;77.1709;100264.5;;;;-72
2023/08/01 20:22:55;;;;;;;;;;;;;;;17.44;77.26367;100260.1;;;;-70
2023/08/01 20:27:55;;;;;;;;;;;;;;;17.4;77.13574;100265.5;;;;-70
2023/08/01 20:32:55;;;;;;;;;;;;;;;17.37;76.91504;100262.8;;;;-70
2023/08/01 20:36:50;;;;;;;0.2;0;;;;;;;;;;;;;-70
2023/08/01 20:37:55;;;;;;;;;;;;;;;17.34;77.10059;100254.7;;;;-69
2023/08/01 20:42:57;;;;;;;;;;;;;;;17.31;77.03906;100259.3;;;;-69
2023/08/01 20:47:56;;;;;;;;;;;;;;;17.27;77.06641;100255.4;;;;-69
2023/08/01 20:52:56;;;;;;;;;;;;;;;17.24;77.33008;100248.3;;;;-71
2023/08/01 20:57:55;;;;;;;;;;;;;;;17.21;77.56152;100249.6;;;;-69
2023/08/01 21:02:55;;;;;;;;;;;;;;;17.18;77.2666;100251;;;;-70
2023/08/01 21:06:53;;;;;;;0.2;0;;;;;;;;;;;;;-70
2023/08/01 21:07:55;;;;;;;;;;;;;;;17.17;77.11719;100253.5;;;;-69
2023/08/01 21:12:55;;;;;;;;;;;;;;;17.12;77.28906;100251.6;;;;-68
2023/08/01 21:17:57;;;;;;;;;;;;;;;17.08;77.6416;100248.5;;;;-70
2023/08/01 21:22:55;;;;;;;;;;;;;;;17.06;77.48047;100243.6;;;;-69
2023/08/01 21:27:55;;;;;;;;;;;;;;;17.02;77.37207;100247.5;;;;-68
2023/08/01 21:32:55;;;;;;;;;;;;;;;16.99;77.7373;100252.4;;;;-69
2023/08/01 21:36:55;;;;;;;0.2;0;;;;;;;;;;;;;-69
2023/08/01 21:37:55;;;;;;;;;;;;;;;16.97;77.68848;100248.9;;;;-70
2023/08/01 21:42:55;;;;;;;;;;;;;;;16.92;77.66992;100236.1;;;;-69
2023/08/01 21:47:55;;;;;;;;;;;;;;;16.92;77.41113;100234.7;;;;-70
2023/08/01 21:52:55;;;;;;;;;;;;;;;16.88;77.67285;100233.3;;;;-69
2023/08/01 21:57:55;;;;;;;;;;;;;;;16.84;77.57617;100220.9;;;;-70
2023/08/01 22:02:55;;;;;;;;;;;;;;;16.85;77.56543;100216.5;;;;-70
2023/08/01 22:06:58;;;;;;;0.2;0;;;;;;;;;;;;;-69
2023/08/01 22:07:55;;;;;;;;;;;;;;;16.81;77.46875;100207.9;;;;-69
2023/08/01 22:12:55;;;;;;;;;;;;;;;16.8;77.50293;100214;;;;-70
2023/08/01 22:17:55;;;;;;;;;;;;;;;16.79;77.56738;100209;;;;-69
2023/08/01 22:22:55;;;;;;;;;;;;;;;16.78;77.50977;100210;;;;-68
2023/08/01 22:27:55;;;;;;;;;;;;;;;16.76;77.92188;100203.2;;;;-69
2023/08/01 22:32:57;;;;;;;;;;;;;;;16.75;77.76172;100195.9;;;;-70
2023/08/01 22:37:00;;;;;;;0.2;0;;;;;;;;;;;;;-69
2023/08/01 22:37:55;;;;;;;;;;;;;;;16.76;77.74219;100204.1;;;;-69
2023/08/01 22:42:55;;;;;;;;;;;;;;;16.74;77.80469;100199.2;;;;-69
2023/08/01 22:47:58;;;;;;;;;;;;;;;16.73;77.89453;100192.3;;;;-69
2023/08/01 22:52:55;;;;;;;;;;;;;;;16.72;78.09375;100184.8;;;;-69
2023/08/01 22:57:55;;;;;;;;;;;;;;;16.7;78.23633;100178.3;;;;-68
2023/08/01 23:02:55;;;;;;;;;;;;;;;16.69;78.37109;100163.1;;;;-69
2023/08/01 23:07:10;;;;;;;0.2;0.1;;;;;;;;;;;;;-69
2023/08/01 23:07:56;;;;;;;;;;;;;;;16.69;78.21387;100153.5;;;;-69
2023/08/01 23:12:55;;;;;;;;;;;;;;;16.68;78.69434;100146.4;;;;-70
2023/08/01 23:17:55;;;;;;;;;;;;;;;16.64;78.71875;100143.6;;;;-70
2023/08/01 23:22:55;;;;;;;;;;;;;;;16.59;79.7998;100142.6;;;;-70
2023/08/01 23:27:55;;;;;;;;;;;;;;;16.55;79.03027;100127.8;;;;-69
2023/08/01 23:32:55;;;;;;;;;;;;;;;16.53;79.86816;100130;;;;-67
2023/08/01 23:37:06;;;;;;;0.2;0;;;;;;;;;;;;;-69
2023/08/01 23:37:55;;;;;;;;;;;;;;;16.52;79.96582;100124.8;;;;-69
2023/08/01 23:42:55;;;;;;;;;;;;;;;16.52;79.69824;100123.2;;;;-70
2023/08/01 23:47:56;;;;;;;;;;;;;;;16.53;80.10352;100116.9;;;;-69
2023/08/01 23:52:55;;;;;;;;;;;;;;;16.51;79.90918;100097.1;;;;-69
2023/08/01 23:57:55;;;;;;;;;;;;;;;16.52;79.98828;100086.8;;;;-68
